sensor_id;sensor_type;location;lat;lon;timestamp;P1;durP1;ratioP1;P2;durP2;ratioP2
21128;SDS011;10722;51.910;8.352;2023-03-01T00:02:06;24.67;;;13.43;;
21128;SDS011;10722;51.910;8.352;2023-03-01T00:04:52;25.60;;;13.23;;
21128;SDS011;10722;51.910;8.352;2023-03-01T00:07:37;28.27;;;14.73;;
21128;SDS011;10722;51.910;8.352;2023-03-01T00:10:22;29.90;;;16.93;;
21128;SDS011;10722;51.910;8.352;2023-03-01T00:13:08;25.60;;;14.60;;
21128;SDS011;10722;51.910;8.352;2023-03-01T00:15:53;27.90;;;14.13;;
21128;SDS011;10722;51.910;8.352;2023-03-01T00:18:38;27.13;;;14.30;;
21128;SDS011;10722;51.910;8.352;2023-03-01T00:21:24;26.00;;;13.07;;
21128;SDS011;10722;51.910;8.352;2023-03-01T00:24:10;26.47;;;13.50;;
21128;SDS011;10722;51.910;8.352;2023-03-01T00:26:55;27.80;;;14.83;;
21128;SDS011;10722;51.910;8.352;2023-03-01T00:29:40;24.43;;;12.97;;
21128;SDS011;10722;51.910;8.352;2023-03-01T00:32:26;27.00;;;14.23;;
21128;SDS011;10722;51.910;8.352;2023-03-01T00:35:11;24.23;;;13.13;;
21128;SDS011;10722;51.910;8.352;2023-03-01T00:37:57;26.53;;;14.40;;
21128;SDS011;10722;51.910;8.352;2023-03-01T00:40:42;24.40;;;13.37;;
21128;SDS011;10722;51.910;8.352;2023-03-01T00:43:27;25.90;;;13.90;;
21128;SDS011;10722;51.910;8.352;2023-03-01T00:46:14;25.53;;;13.23;;
21128;SDS011;10722;51.910;8.352;2023-03-01T00:49:01;25.80;;;12.87;;
21128;SDS011;10722;51.910;8.352;2023-03-01T00:51:46;24.50;;;13.17;;
21128;SDS011;10722;51.910;8.352;2023-03-01T00:54:31;26.60;;;13.80;;
21128;SDS011;10722;51.910;8.352;2023-03-01T00:57:16;30.07;;;13.90;;
21128;SDS011;10722;51.910;8.352;2023-03-01T01:00:02;23.67;;;12.23;;
21128;SDS011;10722;51.910;8.352;2023-03-01T01:02:48;24.07;;;12.80;;
21128;SDS011;10722;51.910;8.352;2023-03-01T01:05:34;22.87;;;12.37;;
21128;SDS011;10722;51.910;8.352;2023-03-01T01:08:20;26.57;;;12.73;;
21128;SDS011;10722;51.910;8.352;2023-03-01T01:11:05;22.90;;;12.47;;
21128;SDS011;10722;51.910;8.352;2023-03-01T01:13:50;28.37;;;13.80;;
21128;SDS011;10722;51.910;8.352;2023-03-01T01:16:36;25.53;;;13.13;;
21128;SDS011;10722;51.910;8.352;2023-03-01T01:19:21;24.23;;;12.97;;
21128;SDS011;10722;51.910;8.352;2023-03-01T01:22:06;22.93;;;12.67;;
21128;SDS011;10722;51.910;8.352;2023-03-01T01:24:51;24.87;;;13.47;;
21128;SDS011;10722;51.910;8.352;2023-03-01T01:27:37;25.43;;;13.63;;
21128;SDS011;10722;51.910;8.352;2023-03-01T01:30:22;23.70;;;12.67;;
21128;SDS011;10722;51.910;8.352;2023-03-01T01:36:29;25.50;;;13.20;;
21128;SDS011;10722;51.910;8.352;2023-03-01T01:39:15;24.53;;;12.97;;
21128;SDS011;10722;51.910;8.352;2023-03-01T01:42:00;23.90;;;12.77;;
21128;SDS011;10722;51.910;8.352;2023-03-01T01:48:11;24.97;;;12.50;;
21128;SDS011;10722;51.910;8.352;2023-03-01T01:51:02;24.20;;;12.07;;
21128;SDS011;10722;51.910;8.352;2023-03-01T01:53:48;24.93;;;11.77;;
21128;SDS011;10722;51.910;8.352;2023-03-01T01:56:37;25.40;;;11.87;;
21128;SDS011;10722;51.910;8.352;2023-03-01T01:59:28;24.00;;;12.43;;
21128;SDS011;10722;51.910;8.352;2023-03-01T02:02:29;21.47;;;11.30;;
21128;SDS011;10722;51.910;8.352;2023-03-01T02:05:24;23.30;;;11.30;;
21128;SDS011;10722;51.910;8.352;2023-03-01T02:08:11;25.60;;;12.53;;
21128;SDS011;10722;51.910;8.352;2023-03-01T02:10:57;24.80;;;12.60;;
21128;SDS011;10722;51.910;8.352;2023-03-01T02:13:44;23.53;;;12.40;;
21128;SDS011;10722;51.910;8.352;2023-03-01T02:16:29;22.83;;;12.20;;
21128;SDS011;10722;51.910;8.352;2023-03-01T02:19:19;22.80;;;12.43;;
21128;SDS011;10722;51.910;8.352;2023-03-01T02:22:27;24.60;;;11.73;;
21128;SDS011;10722;51.910;8.352;2023-03-01T02:31:00;23.77;;;12.50;;
21128;SDS011;10722;51.910;8.352;2023-03-01T02:33:48;24.93;;;12.80;;
21128;SDS011;10722;51.910;8.352;2023-03-01T02:36:37;25.50;;;12.77;;
21128;SDS011;10722;51.910;8.352;2023-03-01T02:39:26;25.77;;;12.77;;
21128;SDS011;10722;51.910;8.352;2023-03-01T02:42:16;25.13;;;12.30;;
21128;SDS011;10722;51.910;8.352;2023-03-01T02:45:06;23.50;;;12.33;;
21128;SDS011;10722;51.910;8.352;2023-03-01T02:48:00;28.20;;;12.87;;
21128;SDS011;10722;51.910;8.352;2023-03-01T02:53:45;24.00;;;12.20;;
21128;SDS011;10722;51.910;8.352;2023-03-01T02:56:41;27.27;;;12.33;;
21128;SDS011;10722;51.910;8.352;2023-03-01T02:59:29;26.23;;;12.97;;
21128;SDS011;10722;51.910;8.352;2023-03-01T03:02:24;23.10;;;12.27;;
21128;SDS011;10722;51.910;8.352;2023-03-01T03:05:13;23.20;;;11.83;;
21128;SDS011;10722;51.910;8.352;2023-03-01T03:07:59;22.83;;;12.40;;
21128;SDS011;10722;51.910;8.352;2023-03-01T03:10:46;23.43;;;11.37;;
21128;SDS011;10722;51.910;8.352;2023-03-01T03:13:31;22.67;;;12.00;;
21128;SDS011;10722;51.910;8.352;2023-03-01T03:16:17;25.70;;;12.57;;
21128;SDS011;10722;51.910;8.352;2023-03-01T03:19:02;23.07;;;11.73;;
21128;SDS011;10722;51.910;8.352;2023-03-01T03:21:47;22.57;;;11.47;;
21128;SDS011;10722;51.910;8.352;2023-03-01T03:24:32;23.07;;;12.03;;
21128;SDS011;10722;51.910;8.352;2023-03-01T03:27:16;25.63;;;12.10;;
21128;SDS011;10722;51.910;8.352;2023-03-01T03:30:01;24.37;;;12.57;;
21128;SDS011;10722;51.910;8.352;2023-03-01T03:32:47;25.00;;;12.67;;
21128;SDS011;10722;51.910;8.352;2023-03-01T03:35:41;21.00;;;11.47;;
21128;SDS011;10722;51.910;8.352;2023-03-01T03:38:28;24.00;;;12.07;;
21128;SDS011;10722;51.910;8.352;2023-03-01T03:41:14;22.13;;;11.67;;
21128;SDS011;10722;51.910;8.352;2023-03-01T03:44:00;23.37;;;12.17;;
21128;SDS011;10722;51.910;8.352;2023-03-01T03:46:45;23.57;;;11.77;;
21128;SDS011;10722;51.910;8.352;2023-03-01T03:49:31;23.43;;;12.23;;
21128;SDS011;10722;51.910;8.352;2023-03-01T03:52:15;22.67;;;11.63;;
21128;SDS011;10722;51.910;8.352;2023-03-01T03:55:01;22.10;;;11.70;;
21128;SDS011;10722;51.910;8.352;2023-03-01T03:57:47;23.97;;;11.97;;
21128;SDS011;10722;51.910;8.352;2023-03-01T04:00:33;22.97;;;12.00;;
21128;SDS011;10722;51.910;8.352;2023-03-01T04:03:20;25.10;;;12.43;;
21128;SDS011;10722;51.910;8.352;2023-03-01T04:06:05;23.10;;;11.93;;
21128;SDS011;10722;51.910;8.352;2023-03-01T04:08:50;27.50;;;12.70;;
21128;SDS011;10722;51.910;8.352;2023-03-01T04:11:36;24.83;;;12.57;;
21128;SDS011;10722;51.910;8.352;2023-03-01T04:14:20;22.60;;;12.23;;
21128;SDS011;10722;51.910;8.352;2023-03-01T04:17:05;24.03;;;12.33;;
21128;SDS011;10722;51.910;8.352;2023-03-01T04:19:50;23.50;;;11.53;;
21128;SDS011;10722;51.910;8.352;2023-03-01T04:22:35;25.60;;;12.47;;
21128;SDS011;10722;51.910;8.352;2023-03-01T04:25:20;22.77;;;12.60;;
21128;SDS011;10722;51.910;8.352;2023-03-01T04:28:07;22.40;;;11.63;;
21128;SDS011;10722;51.910;8.352;2023-03-01T04:30:53;27.03;;;12.37;;
21128;SDS011;10722;51.910;8.352;2023-03-01T04:33:45;21.70;;;12.13;;
21128;SDS011;10722;51.910;8.352;2023-03-01T04:36:32;26.50;;;12.50;;
21128;SDS011;10722;51.910;8.352;2023-03-01T04:39:18;23.87;;;11.63;;
21128;SDS011;10722;51.910;8.352;2023-03-01T04:42:03;23.77;;;12.00;;
21128;SDS011;10722;51.910;8.352;2023-03-01T04:44:48;24.87;;;12.17;;
21128;SDS011;10722;51.910;8.352;2023-03-01T04:47:34;23.17;;;12.17;;
21128;SDS011;10722;51.910;8.352;2023-03-01T04:50:19;23.83;;;11.87;;
21128;SDS011;10722;51.910;8.352;2023-03-01T04:53:05;25.43;;;12.43;;
21128;SDS011;10722;51.910;8.352;2023-03-01T04:55:50;25.57;;;12.30;;
21128;SDS011;10722;51.910;8.352;2023-03-01T04:58:36;22.97;;;11.47;;
21128;SDS011;10722;51.910;8.352;2023-03-01T05:01:21;27.80;;;12.37;;
21128;SDS011;10722;51.910;8.352;2023-03-01T05:04:06;24.30;;;12.90;;
21128;SDS011;10722;51.910;8.352;2023-03-01T05:06:52;25.90;;;12.97;;
21128;SDS011;10722;51.910;8.352;2023-03-01T05:09:37;25.30;;;12.87;;
21128;SDS011;10722;51.910;8.352;2023-03-01T05:12:22;24.30;;;13.17;;
21128;SDS011;10722;51.910;8.352;2023-03-01T05:15:07;25.90;;;12.80;;
21128;SDS011;10722;51.910;8.352;2023-03-01T05:17:54;27.03;;;13.13;;
21128;SDS011;10722;51.910;8.352;2023-03-01T05:20:40;24.23;;;12.67;;
21128;SDS011;10722;51.910;8.352;2023-03-01T05:23:25;27.73;;;13.87;;
21128;SDS011;10722;51.910;8.352;2023-03-01T05:26:10;27.57;;;13.23;;
21128;SDS011;10722;51.910;8.352;2023-03-01T05:29:12;23.50;;;13.37;;
21128;SDS011;10722;51.910;8.352;2023-03-01T05:31:59;26.90;;;13.93;;
21128;SDS011;10722;51.910;8.352;2023-03-01T05:34:45;28.00;;;13.77;;
21128;SDS011;10722;51.910;8.352;2023-03-01T05:37:30;26.07;;;13.80;;
21128;SDS011;10722;51.910;8.352;2023-03-01T05:40:17;26.80;;;14.13;;
21128;SDS011;10722;51.910;8.352;2023-03-01T05:43:04;26.63;;;14.60;;
21128;SDS011;10722;51.910;8.352;2023-03-01T05:45:49;26.43;;;14.47;;
21128;SDS011;10722;51.910;8.352;2023-03-01T05:48:35;30.90;;;14.73;;
21128;SDS011;10722;51.910;8.352;2023-03-01T05:51:20;25.13;;;13.70;;
21128;SDS011;10722;51.910;8.352;2023-03-01T05:54:05;28.57;;;14.97;;
21128;SDS011;10722;51.910;8.352;2023-03-01T05:56:50;30.30;;;15.83;;
21128;SDS011;10722;51.910;8.352;2023-03-01T05:59:35;31.97;;;15.17;;
21128;SDS011;10722;51.910;8.352;2023-03-01T06:02:20;27.73;;;15.43;;
21128;SDS011;10722;51.910;8.352;2023-03-01T06:05:06;27.77;;;15.47;;
21128;SDS011;10722;51.910;8.352;2023-03-01T06:07:53;27.97;;;15.10;;
21128;SDS011;10722;51.910;8.352;2023-03-01T06:10:39;28.80;;;15.03;;
21128;SDS011;10722;51.910;8.352;2023-03-01T06:13:24;30.67;;;15.60;;
21128;SDS011;10722;51.910;8.352;2023-03-01T06:16:10;28.73;;;16.13;;
21128;SDS011;10722;51.910;8.352;2023-03-01T06:18:55;30.20;;;15.17;;
21128;SDS011;10722;51.910;8.352;2023-03-01T06:21:40;31.00;;;16.60;;
21128;SDS011;10722;51.910;8.352;2023-03-01T06:24:25;30.93;;;16.87;;
21128;SDS011;10722;51.910;8.352;2023-03-01T06:27:10;31.50;;;17.63;;
21128;SDS011;10722;51.910;8.352;2023-03-01T06:29:56;28.77;;;16.30;;
21128;SDS011;10722;51.910;8.352;2023-03-01T06:32:41;31.23;;;16.83;;
21128;SDS011;10722;51.910;8.352;2023-03-01T06:35:26;32.07;;;17.50;;
21128;SDS011;10722;51.910;8.352;2023-03-01T06:38:11;32.73;;;17.47;;
21128;SDS011;10722;51.910;8.352;2023-03-01T06:40:57;30.43;;;18.07;;
21128;SDS011;10722;51.910;8.352;2023-03-01T06:43:43;32.00;;;19.10;;
21128;SDS011;10722;51.910;8.352;2023-03-01T06:46:27;30.00;;;16.47;;
21128;SDS011;10722;51.910;8.352;2023-03-01T06:49:13;29.87;;;15.60;;
21128;SDS011;10722;51.910;8.352;2023-03-01T06:51:58;38.37;;;21.23;;
21128;SDS011;10722;51.910;8.352;2023-03-01T06:54:44;42.57;;;22.53;;
21128;SDS011;10722;51.910;8.352;2023-03-01T06:57:29;41.43;;;23.30;;
21128;SDS011;10722;51.910;8.352;2023-03-01T07:00:14;50.83;;;29.87;;
21128;SDS011;10722;51.910;8.352;2023-03-01T07:03:00;36.93;;;21.20;;
21128;SDS011;10722;51.910;8.352;2023-03-01T07:05:48;32.30;;;18.63;;
21128;SDS011;10722;51.910;8.352;2023-03-01T07:08:34;33.33;;;18.83;;
21128;SDS011;10722;51.910;8.352;2023-03-01T07:11:19;32.50;;;18.57;;
21128;SDS011;10722;51.910;8.352;2023-03-01T07:14:05;31.13;;;18.67;;
21128;SDS011;10722;51.910;8.352;2023-03-01T07:16:50;32.13;;;19.50;;
21128;SDS011;10722;51.910;8.352;2023-03-01T07:19:35;32.13;;;18.13;;
21128;SDS011;10722;51.910;8.352;2023-03-01T07:22:20;31.90;;;18.67;;
21128;SDS011;10722;51.910;8.352;2023-03-01T07:25:05;32.03;;;19.07;;
21128;SDS011;10722;51.910;8.352;2023-03-01T07:27:51;29.53;;;17.40;;
21128;SDS011;10722;51.910;8.352;2023-03-01T07:30:37;31.43;;;17.73;;
21128;SDS011;10722;51.910;8.352;2023-03-01T07:33:22;32.40;;;17.67;;
21128;SDS011;10722;51.910;8.352;2023-03-01T07:36:08;31.77;;;18.10;;
21128;SDS011;10722;51.910;8.352;2023-03-01T07:38:54;31.93;;;17.67;;
21128;SDS011;10722;51.910;8.352;2023-03-01T07:41:39;29.50;;;17.60;;
21128;SDS011;10722;51.910;8.352;2023-03-01T07:44:25;30.07;;;17.70;;
21128;SDS011;10722;51.910;8.352;2023-03-01T07:47:10;28.50;;;16.43;;
21128;SDS011;10722;51.910;8.352;2023-03-01T07:49:55;57.00;;;31.50;;
21128;SDS011;10722;51.910;8.352;2023-03-01T07:52:40;29.40;;;17.20;;
21128;SDS011;10722;51.910;8.352;2023-03-01T07:55:26;29.27;;;16.70;;
21128;SDS011;10722;51.910;8.352;2023-03-01T07:58:11;29.27;;;16.37;;
21128;SDS011;10722;51.910;8.352;2023-03-01T08:01:00;27.23;;;15.43;;
21128;SDS011;10722;51.910;8.352;2023-03-01T08:03:49;28.07;;;15.20;;
21128;SDS011;10722;51.910;8.352;2023-03-01T08:06:35;29.80;;;16.43;;
21128;SDS011;10722;51.910;8.352;2023-03-01T08:09:20;26.97;;;15.40;;
21128;SDS011;10722;51.910;8.352;2023-03-01T08:12:06;27.10;;;15.60;;
21128;SDS011;10722;51.910;8.352;2023-03-01T08:14:51;31.00;;;15.40;;
21128;SDS011;10722;51.910;8.352;2023-03-01T08:17:37;32.67;;;16.13;;
21128;SDS011;10722;51.910;8.352;2023-03-01T08:20:22;27.03;;;15.27;;
21128;SDS011;10722;51.910;8.352;2023-03-01T08:23:07;30.87;;;15.23;;
21128;SDS011;10722;51.910;8.352;2023-03-01T08:25:52;28.43;;;15.33;;
21128;SDS011;10722;51.910;8.352;2023-03-01T08:28:38;27.27;;;14.47;;
21128;SDS011;10722;51.910;8.352;2023-03-01T08:31:28;26.93;;;14.67;;
21128;SDS011;10722;51.910;8.352;2023-03-01T08:34:16;29.60;;;15.13;;
21128;SDS011;10722;51.910;8.352;2023-03-01T08:37:02;30.13;;;14.07;;
21128;SDS011;10722;51.910;8.352;2023-03-01T08:39:47;26.13;;;14.23;;
21128;SDS011;10722;51.910;8.352;2023-03-01T08:42:33;26.00;;;13.83;;
21128;SDS011;10722;51.910;8.352;2023-03-01T08:45:18;27.40;;;14.53;;
21128;SDS011;10722;51.910;8.352;2023-03-01T08:48:04;25.47;;;13.83;;
21128;SDS011;10722;51.910;8.352;2023-03-01T08:50:49;28.37;;;13.93;;
21128;SDS011;10722;51.910;8.352;2023-03-01T08:53:34;26.60;;;14.20;;
21128;SDS011;10722;51.910;8.352;2023-03-01T08:56:19;28.60;;;14.37;;
21128;SDS011;10722;51.910;8.352;2023-03-01T08:59:05;28.77;;;15.77;;
21128;SDS011;10722;51.910;8.352;2023-03-01T09:01:50;32.77;;;17.23;;
21128;SDS011;10722;51.910;8.352;2023-03-01T09:04:36;34.93;;;18.93;;
21128;SDS011;10722;51.910;8.352;2023-03-01T09:07:21;29.57;;;15.87;;
21128;SDS011;10722;51.910;8.352;2023-03-01T09:10:07;23.63;;;12.90;;
21128;SDS011;10722;51.910;8.352;2023-03-01T09:12:52;24.53;;;11.83;;
21128;SDS011;10722;51.910;8.352;2023-03-01T09:15:38;24.23;;;12.83;;
21128;SDS011;10722;51.910;8.352;2023-03-01T09:18:24;19.93;;;10.83;;
21128;SDS011;10722;51.910;8.352;2023-03-01T09:21:10;24.57;;;13.00;;
21128;SDS011;10722;51.910;8.352;2023-03-01T09:24:00;24.53;;;12.80;;
21128;SDS011;10722;51.910;8.352;2023-03-01T09:26:44;26.50;;;14.10;;
21128;SDS011;10722;51.910;8.352;2023-03-01T09:29:30;33.63;;;12.83;;
21128;SDS011;10722;51.910;8.352;2023-03-01T09:32:15;26.10;;;13.73;;
21128;SDS011;10722;51.910;8.352;2023-03-01T09:35:01;24.37;;;11.93;;
21128;SDS011;10722;51.910;8.352;2023-03-01T09:37:46;23.93;;;12.50;;
21128;SDS011;10722;51.910;8.352;2023-03-01T09:40:31;28.47;;;15.97;;
21128;SDS011;10722;51.910;8.352;2023-03-01T09:43:40;25.77;;;13.97;;
21128;SDS011;10722;51.910;8.352;2023-03-01T09:46:26;27.57;;;14.90;;
21128;SDS011;10722;51.910;8.352;2023-03-01T09:49:14;28.90;;;14.80;;
21128;SDS011;10722;51.910;8.352;2023-03-01T09:55:09;20.27;;;10.57;;
21128;SDS011;10722;51.910;8.352;2023-03-01T10:01:16;27.50;;;14.37;;
21128;SDS011;10722;51.910;8.352;2023-03-01T10:10:45;18.80;;;8.83;;
21128;SDS011;10722;51.910;8.352;2023-03-01T10:13:45;21.23;;;11.13;;
21128;SDS011;10722;51.910;8.352;2023-03-01T10:19:40;18.33;;;8.73;;
21128;SDS011;10722;51.910;8.352;2023-03-01T10:22:29;20.00;;;9.83;;
21128;SDS011;10722;51.910;8.352;2023-03-01T10:25:17;22.00;;;11.07;;
21128;SDS011;10722;51.910;8.352;2023-03-01T10:31:13;19.13;;;8.70;;
21128;SDS011;10722;51.910;8.352;2023-03-01T10:34:08;18.43;;;8.83;;
21128;SDS011;10722;51.910;8.352;2023-03-01T10:36:57;18.77;;;8.80;;
21128;SDS011;10722;51.910;8.352;2023-03-01T10:42:46;16.90;;;8.00;;
21128;SDS011;10722;51.910;8.352;2023-03-01T10:48:23;17.87;;;8.50;;
21128;SDS011;10722;51.910;8.352;2023-03-01T10:51:12;17.13;;;8.63;;
21128;SDS011;10722;51.910;8.352;2023-03-01T10:54:03;20.17;;;10.47;;
21128;SDS011;10722;51.910;8.352;2023-03-01T10:56:51;22.20;;;11.63;;
21128;SDS011;10722;51.910;8.352;2023-03-01T10:59:44;21.57;;;10.27;;
21128;SDS011;10722;51.910;8.352;2023-03-01T11:02:46;21.90;;;11.47;;
21128;SDS011;10722;51.910;8.352;2023-03-01T11:05:33;19.57;;;9.93;;
21128;SDS011;10722;51.910;8.352;2023-03-01T11:11:32;20.83;;;9.90;;
21128;SDS011;10722;51.910;8.352;2023-03-01T11:14:23;22.00;;;10.43;;
21128;SDS011;10722;51.910;8.352;2023-03-01T11:17:13;18.67;;;8.93;;
21128;SDS011;10722;51.910;8.352;2023-03-01T11:20:05;19.70;;;9.27;;
21128;SDS011;10722;51.910;8.352;2023-03-01T11:25:59;19.23;;;9.07;;
21128;SDS011;10722;51.910;8.352;2023-03-01T11:28:48;19.00;;;9.67;;
21128;SDS011;10722;51.910;8.352;2023-03-01T11:31:40;22.80;;;9.97;;
21128;SDS011;10722;51.910;8.352;2023-03-01T11:37:35;18.43;;;8.87;;
21128;SDS011;10722;51.910;8.352;2023-03-01T11:40:26;19.27;;;8.73;;
21128;SDS011;10722;51.910;8.352;2023-03-01T11:43:40;17.97;;;7.83;;
21128;SDS011;10722;51.910;8.352;2023-03-01T11:52:22;17.50;;;7.73;;
21128;SDS011;10722;51.910;8.352;2023-03-01T11:58:27;13.87;;;6.00;;
21128;SDS011;10722;51.910;8.352;2023-03-01T12:01:45;17.07;;;6.30;;
21128;SDS011;10722;51.910;8.352;2023-03-01T12:10:52;14.10;;;6.00;;
21128;SDS011;10722;51.910;8.352;2023-03-01T12:13:57;16.20;;;5.90;;
21128;SDS011;10722;51.910;8.352;2023-03-01T12:29:26;16.57;;;6.30;;
21128;SDS011;10722;51.910;8.352;2023-03-01T12:32:25;15.40;;;6.77;;
21128;SDS011;10722;51.910;8.352;2023-03-01T12:51:54;15.77;;;7.60;;
21128;SDS011;10722;51.910;8.352;2023-03-01T12:54:46;15.67;;;6.97;;
21128;SDS011;10722;51.910;8.352;2023-03-01T12:57:38;19.50;;;8.97;;
21128;SDS011;10722;51.910;8.352;2023-03-01T13:00:40;16.83;;;7.53;;
21128;SDS011;10722;51.910;8.352;2023-03-01T13:13:23;15.50;;;6.40;;
21128;SDS011;10722;51.910;8.352;2023-03-01T13:16:38;14.60;;;6.27;;
21128;SDS011;10722;51.910;8.352;2023-03-01T13:19:27;16.87;;;6.93;;
21128;SDS011;10722;51.910;8.352;2023-03-01T13:22:27;15.60;;;6.40;;
21128;SDS011;10722;51.910;8.352;2023-03-01T13:25:18;15.57;;;6.18;;
21128;SDS011;10722;51.910;8.352;2023-03-01T13:37:33;14.45;;;5.95;;
21128;SDS011;10722;51.910;8.352;2023-03-01T13:43:25;13.95;;;5.70;;
21128;SDS011;10722;51.910;8.352;2023-03-01T13:46:18;14.70;;;6.28;;
21128;SDS011;10722;51.910;8.352;2023-03-01T13:49:09;13.77;;;5.65;;
21128;SDS011;10722;51.910;8.352;2023-03-01T13:51:59;15.30;;;6.00;;
21128;SDS011;10722;51.910;8.352;2023-03-01T13:54:44;15.30;;;5.55;;
21128;SDS011;10722;51.910;8.352;2023-03-01T13:57:32;14.00;;;5.60;;
21128;SDS011;10722;51.910;8.352;2023-03-01T14:00:25;13.43;;;5.13;;
21128;SDS011;10722;51.910;8.352;2023-03-01T14:09:10;12.68;;;5.18;;
21128;SDS011;10722;51.910;8.352;2023-03-01T14:12:15;12.23;;;4.70;;
21128;SDS011;10722;51.910;8.352;2023-03-01T14:21:26;13.27;;;4.85;;
21128;SDS011;10722;51.910;8.352;2023-03-01T14:24:16;13.45;;;4.90;;
21128;SDS011;10722;51.910;8.352;2023-03-01T14:27:02;13.10;;;4.55;;
21128;SDS011;10722;51.910;8.352;2023-03-01T14:30:10;14.25;;;5.07;;
21128;SDS011;10722;51.910;8.352;2023-03-01T14:33:02;12.95;;;4.63;;
21128;SDS011;10722;51.910;8.352;2023-03-01T14:36:03;11.88;;;4.47;;
21128;SDS011;10722;51.910;8.352;2023-03-01T14:38:51;14.48;;;4.90;;
21128;SDS011;10722;51.910;8.352;2023-03-01T14:41:36;15.05;;;4.80;;
21128;SDS011;10722;51.910;8.352;2023-03-01T14:44:22;12.70;;;4.60;;
21128;SDS011;10722;51.910;8.352;2023-03-01T14:47:12;14.53;;;4.80;;
21128;SDS011;10722;51.910;8.352;2023-03-01T14:52:55;13.60;;;4.87;;
21128;SDS011;10722;51.910;8.352;2023-03-01T14:55:45;14.23;;;4.73;;
21128;SDS011;10722;51.910;8.352;2023-03-01T14:58:33;13.10;;;4.63;;
21128;SDS011;10722;51.910;8.352;2023-03-01T15:01:18;13.40;;;5.00;;
21128;SDS011;10722;51.910;8.352;2023-03-01T15:04:03;12.20;;;4.60;;
21128;SDS011;10722;51.910;8.352;2023-03-01T15:06:50;13.73;;;5.20;;
21128;SDS011;10722;51.910;8.352;2023-03-01T15:09:40;13.63;;;4.80;;
21128;SDS011;10722;51.910;8.352;2023-03-01T15:15:31;14.27;;;5.67;;
21128;SDS011;10722;51.910;8.352;2023-03-01T15:18:25;12.27;;;4.80;;
21128;SDS011;10722;51.910;8.352;2023-03-01T15:21:17;13.63;;;5.07;;
21128;SDS011;10722;51.910;8.352;2023-03-01T15:26:56;16.67;;;5.70;;
21128;SDS011;10722;51.910;8.352;2023-03-01T15:29:46;15.77;;;5.40;;
21128;SDS011;10722;51.910;8.352;2023-03-01T15:32:35;12.27;;;5.10;;
21128;SDS011;10722;51.910;8.352;2023-03-01T15:38:31;15.23;;;6.20;;
21128;SDS011;10722;51.910;8.352;2023-03-01T15:41:46;13.57;;;5.70;;
21128;SDS011;10722;51.910;8.352;2023-03-01T15:44:33;14.70;;;5.50;;
21128;SDS011;10722;51.910;8.352;2023-03-01T15:47:29;13.63;;;4.90;;
21128;SDS011;10722;51.910;8.352;2023-03-01T15:50:25;12.30;;;4.80;;
21128;SDS011;10722;51.910;8.352;2023-03-01T15:53:28;13.63;;;4.80;;
21128;SDS011;10722;51.910;8.352;2023-03-01T15:56:13;14.80;;;5.13;;
21128;SDS011;10722;51.910;8.352;2023-03-01T15:58:59;13.27;;;4.67;;
21128;SDS011;10722;51.910;8.352;2023-03-01T16:01:46;13.80;;;5.03;;
21128;SDS011;10722;51.910;8.352;2023-03-01T16:04:30;14.23;;;5.50;;
21128;SDS011;10722;51.910;8.352;2023-03-01T16:07:16;15.07;;;6.70;;
21128;SDS011;10722;51.910;8.352;2023-03-01T16:10:01;15.83;;;6.30;;
21128;SDS011;10722;51.910;8.352;2023-03-01T16:12:47;14.87;;;5.90;;
21128;SDS011;10722;51.910;8.352;2023-03-01T16:15:33;15.17;;;5.67;;
21128;SDS011;10722;51.910;8.352;2023-03-01T16:18:18;14.63;;;6.03;;
21128;SDS011;10722;51.910;8.352;2023-03-01T16:21:03;14.20;;;5.70;;
21128;SDS011;10722;51.910;8.352;2023-03-01T16:23:49;15.67;;;5.97;;
21128;SDS011;10722;51.910;8.352;2023-03-01T16:26:36;17.37;;;7.33;;
21128;SDS011;10722;51.910;8.352;2023-03-01T16:29:21;15.13;;;5.70;;
21128;SDS011;10722;51.910;8.352;2023-03-01T16:32:06;14.47;;;5.83;;
21128;SDS011;10722;51.910;8.352;2023-03-01T16:34:52;17.30;;;6.80;;
21128;SDS011;10722;51.910;8.352;2023-03-01T16:37:37;16.83;;;6.20;;
21128;SDS011;10722;51.910;8.352;2023-03-01T16:40:24;18.20;;;6.20;;
21128;SDS011;10722;51.910;8.352;2023-03-01T16:43:13;17.87;;;7.53;;
21128;SDS011;10722;51.910;8.352;2023-03-01T16:45:57;15.00;;;5.93;;
21128;SDS011;10722;51.910;8.352;2023-03-01T16:48:43;14.90;;;6.30;;
21128;SDS011;10722;51.910;8.352;2023-03-01T16:51:28;14.27;;;6.40;;
21128;SDS011;10722;51.910;8.352;2023-03-01T16:54:13;16.50;;;6.87;;
21128;SDS011;10722;51.910;8.352;2023-03-01T16:56:58;17.60;;;7.97;;
21128;SDS011;10722;51.910;8.352;2023-03-01T16:59:46;17.40;;;6.63;;
21128;SDS011;10722;51.910;8.352;2023-03-01T17:06:15;17.53;;;7.20;;
21128;SDS011;10722;51.910;8.352;2023-03-01T17:09:04;21.07;;;8.70;;
21128;SDS011;10722;51.910;8.352;2023-03-01T17:11:49;18.83;;;8.67;;
21128;SDS011;10722;51.910;8.352;2023-03-01T17:14:34;16.23;;;6.50;;
21128;SDS011;10722;51.910;8.352;2023-03-01T17:17:20;23.17;;;11.27;;
21128;SDS011;10722;51.910;8.352;2023-03-01T17:20:06;21.30;;;11.53;;
21128;SDS011;10722;51.910;8.352;2023-03-01T17:22:52;24.90;;;11.97;;
21128;SDS011;10722;51.910;8.352;2023-03-01T17:25:40;22.00;;;10.77;;
21128;SDS011;10722;51.910;8.352;2023-03-01T17:28:29;19.07;;;8.17;;
21128;SDS011;10722;51.910;8.352;2023-03-01T17:31:15;18.80;;;8.47;;
21128;SDS011;10722;51.910;8.352;2023-03-01T17:34:01;16.40;;;7.80;;
21128;SDS011;10722;51.910;8.352;2023-03-01T17:36:46;19.77;;;10.23;;
21128;SDS011;10722;51.910;8.352;2023-03-01T17:39:31;18.87;;;8.97;;
21128;SDS011;10722;51.910;8.352;2023-03-01T17:42:16;18.63;;;9.30;;
21128;SDS011;10722;51.910;8.352;2023-03-01T17:45:01;18.67;;;8.80;;
21128;SDS011;10722;51.910;8.352;2023-03-01T17:47:47;21.73;;;11.70;;
21128;SDS011;10722;51.910;8.352;2023-03-01T17:50:37;18.63;;;9.27;;
21128;SDS011;10722;51.910;8.352;2023-03-01T17:53:23;20.43;;;9.43;;
21128;SDS011;10722;51.910;8.352;2023-03-01T17:56:08;21.40;;;8.10;;
21128;SDS011;10722;51.910;8.352;2023-03-01T17:58:53;16.90;;;8.17;;
21128;SDS011;10722;51.910;8.352;2023-03-01T18:01:40;16.83;;;7.67;;
21128;SDS011;10722;51.910;8.352;2023-03-01T18:04:26;18.87;;;8.33;;
21128;SDS011;10722;51.910;8.352;2023-03-01T18:07:11;17.87;;;8.77;;
21128;SDS011;10722;51.910;8.352;2023-03-01T18:09:56;17.13;;;7.67;;
21128;SDS011;10722;51.910;8.352;2023-03-01T18:12:41;18.77;;;8.53;;
21128;SDS011;10722;51.910;8.352;2023-03-01T18:15:26;29.43;;;14.13;;
21128;SDS011;10722;51.910;8.352;2023-03-01T18:18:12;35.63;;;16.63;;
21128;SDS011;10722;51.910;8.352;2023-03-01T18:20:58;30.33;;;14.60;;
21128;SDS011;10722;51.910;8.352;2023-03-01T18:23:44;26.70;;;11.00;;
21128;SDS011;10722;51.910;8.352;2023-03-01T18:26:29;18.57;;;8.47;;
21128;SDS011;10722;51.910;8.352;2023-03-01T18:29:14;20.43;;;8.60;;
21128;SDS011;10722;51.910;8.352;2023-03-01T18:31:59;19.13;;;8.37;;
21128;SDS011;10722;51.910;8.352;2023-03-01T18:34:47;20.47;;;8.30;;
21128;SDS011;10722;51.910;8.352;2023-03-01T18:37:34;18.10;;;8.50;;
21128;SDS011;10722;51.910;8.352;2023-03-01T18:40:30;17.27;;;8.23;;
21128;SDS011;10722;51.910;8.352;2023-03-01T18:43:24;20.50;;;9.40;;
21128;SDS011;10722;51.910;8.352;2023-03-01T18:46:12;20.57;;;9.50;;
21128;SDS011;10722;51.910;8.352;2023-03-01T18:49:01;18.77;;;9.20;;
21128;SDS011;10722;51.910;8.352;2023-03-01T18:51:46;21.50;;;11.23;;